Time;durP1;ratioP1;P1;durP2;ratioP2;P2;SDS_P1;SDS_P2;PMS_P1;PMS_P2;Temp;Humidity;BMP_temperature;BMP_pressure;BME280_temperature;BME280_humidity;BME280_pressure;Samples;Min_cycle;Max_cycle;Signal;HPM_P1;HPM_P2
2021/01/28 00:02:21;;;;;;;1.73;0.20;;;3.60;99.90;;;;;;5046920;28;20267;-66
2021/01/28 00:04:47;;;;;;;4.03;1.60;;;3.60;99.90;;;;;;5045024;28;20215;-66
2021/01/28 00:07:12;;;;;;;1.70;0.20;;;3.60;99.90;;;;;;5039728;28;20178;-67
2021/01/28 00:09:38;;;;;;;1.70;0.20;;;3.60;99.90;;;;;;5048928;28;20556;-66
2021/01/28 00:12:05;;;;;;;6.13;3.47;;;3.60;99.90;;;;;;5052889;28;20209;-65
2021/01/28 00:14:30;;;;;;;7.15;3.22;;;3.60;99.90;;;;;;5046676;28;20944;-66
2021/01/28 00:16:56;;;;;;;1.80;0.30;;;3.60;99.90;;;;;;5051168;28;20194;-66
2021/01/28 00:19:21;;;;;;;2.17;1.37;;;3.60;99.90;;;;;;5049208;28;20189;-66
2021/01/28 00:21:47;;;;;;;6.40;4.27;;;3.60;99.90;;;;;;5049296;28;20216;-67
2021/01/28 00:24:12;;;;;;;1.80;0.40;;;3.60;99.90;;;;;;5048359;28;20205;-65
2021/01/28 00:26:38;;;;;;;1.73;0.20;;;3.60;99.90;;;;;;5045021;28;20586;-66
2021/01/28 00:29:04;;;;;;;1.70;0.20;;;3.60;99.90;;;;;;5048224;28;20185;-66
2021/01/28 00:31:30;;;;;;;1.73;0.20;;;3.60;99.90;;;;;;5043202;28;20328;-66
2021/01/28 00:33:56;;;;;;;1.77;0.20;;;3.60;99.90;;;;;;5044614;28;20277;-66
2021/01/28 00:36:21;;;;;;;5.70;2.83;;;3.70;99.90;;;;;;5049362;28;20242;-68
2021/01/28 00:38:47;;;;;;;2.03;0.63;;;3.60;99.90;;;;;;5054729;28;20189;-66
2021/01/28 00:41:12;;;;;;;1.70;0.20;;;3.70;99.90;;;;;;5050579;28;20198;-67
2021/01/28 00:43:38;;;;;;;5.60;1.43;;;3.70;99.90;;;;;;5044937;28;20206;-66
2021/01/28 00:46:06;;;;;;;2.80;1.53;;;3.60;99.90;;;;;;5047373;28;20185;-67
2021/01/28 00:48:32;;;;;;;1.75;0.20;;;3.70;99.90;;;;;;5045788;28;20436;-66
2021/01/28 00:50:59;;;;;;;1.70;0.20;;;3.70;99.90;;;;;;5046316;28;20307;-66
2021/01/28 00:53:25;;;;;;;1.80;0.45;;;3.70;99.90;;;;;;5048536;28;20220;-66
2021/01/28 00:55:50;;;;;;;1.70;0.20;;;3.70;99.90;;;;;;5049913;28;20177;-67
2021/01/28 00:58:18;;;;;;;3.03;1.43;;;3.70;99.90;;;;;;5048132;28;20431;-66
2021/01/28 01:00:45;;;;;;;6.82;1.70;;;3.70;99.90;;;;;;5043444;28;20188;-66
2021/01/28 01:03:13;;;;;;;2.97;1.52;;;3.70;99.90;;;;;;5044965;28;20221;-66
2021/01/28 01:05:39;;;;;;;3.95;2.05;;;3.70;99.90;;;;;;5047769;28;20280;-66
2021/01/28 01:08:07;;;;;;;3.72;1.23;;;3.70;99.90;;;;;;5046605;28;20308;-66
2021/01/28 01:10:42;;;;;;;2.47;1.45;;;3.70;99.90;;;;;;5045766;28;20545;-66
2021/01/28 01:13:10;;;;;;;2.00;0.77;;;3.80;99.90;;;;;;5046442;28;20200;-66
2021/01/28 01:15:36;;;;;;;1.73;0.20;;;3.80;99.90;;;;;;5046168;28;20185;-66
2021/01/28 01:18:04;;;;;;;1.70;0.20;;;3.80;99.90;;;;;;5043434;28;20181;-66
2021/01/28 01:20:29;;;;;;;1.75;0.20;;;3.90;99.90;;;;;;5049321;28;20273;-66
2021/01/28 01:22:55;;;;;;;1.77;0.20;;;3.90;99.90;;;;;;5046794;28;20289;-67
2021/01/28 01:25:21;;;;;;;1.80;0.20;;;3.90;99.90;;;;;;5050490;28;20193;-66
2021/01/28 01:27:47;;;;;;;6.43;3.37;;;4.00;99.90;;;;;;5049411;28;20223;-66
2021/01/28 01:30:16;;;;;;;1.80;0.20;;;4.00;99.90;;;;;;5040301;28;20178;-66
2021/01/28 01:32:41;;;;;;;4.05;2.05;;;4.00;99.90;;;;;;5047961;28;20470;-66
2021/01/28 01:35:08;;;;;;;4.80;2.10;;;4.00;99.90;;;;;;5045732;28;20212;-66
2021/01/28 01:37:34;;;;;;;5.03;2.47;;;4.00;99.90;;;;;;5046198;28;20182;-67
2021/01/28 01:39:59;;;;;;;7.83;3.93;;;4.00;99.90;;;;;;5045880;28;20592;-65
2021/01/28 01:42:25;;;;;;;1.77;0.20;;;4.00;99.90;;;;;;5050633;28;20521;-66
2021/01/28 01:44:50;;;;;;;3.73;2.23;;;4.00;99.90;;;;;;5054372;28;20194;-65
2021/01/28 01:47:34;;;;;;;11.50;3.57;;;4.00;99.90;;;;;;5050352;28;20190;-68
2021/01/28 01:50:03;;;;;;;1.80;0.30;;;4.00;99.90;;;;;;5061775;28;20169;-69
2021/01/28 01:52:31;;;;;;;5.15;2.35;;;4.00;99.90;;;;;;5065441;28;20361;-66
2021/01/28 01:54:58;;;;;;;4.85;1.98;;;4.00;99.90;;;;;;5066771;28;20173;-69
2021/01/28 01:57:31;;;;;;;1.90;0.45;;;4.00;99.90;;;;;;5073104;28;20185;-68
2021/01/28 02:00:21;;;;;;;1.77;0.20;;;4.00;99.90;;;;;;5063515;28;20196;-69
2021/01/28 02:02:50;;;;;;;1.80;0.20;;;3.90;99.90;;;;;;5047530;28;20225;-67
2021/01/28 02:05:22;;;;;;;3.45;2.05;;;4.00;99.90;;;;;;5050495;28;20188;-66
2021/01/28 02:07:48;;;;;;;3.08;1.70;;;4.00;99.90;;;;;;5045526;28;20174;-65
2021/01/28 02:10:15;;;;;;;1.77;0.20;;;4.00;99.90;;;;;;5049316;28;20181;-66
2021/01/28 02:12:40;;;;;;;3.35;1.20;;;4.00;99.90;;;;;;5047489;28;20201;-66
2021/01/28 02:15:07;;;;;;;1.90;0.53;;;4.10;99.90;;;;;;5055018;28;20267;-66
2021/01/28 02:17:35;;;;;;;1.75;0.20;;;4.00;99.90;;;;;;5056400;28;20182;-67
2021/01/28 02:20:15;;;;;;;2.00;0.82;;;4.00;99.90;;;;;;5051587;28;20680;-65
2021/01/28 02:22:57;;;;;;;1.80;0.20;;;4.10;99.90;;;;;;5058580;28;20581;-65
2021/01/28 02:25:31;;;;;;;1.80;0.20;;;4.10;99.90;;;;;;5078049;28;20525;-69
2021/01/28 02:28:09;;;;;;;1.80;0.20;;;4.10;99.90;;;;;;5065039;28;20199;-66
2021/01/28 02:30:36;;;;;;;6.90;3.58;;;4.10;99.90;;;;;;5058678;28;20284;-65
2021/01/28 02:33:04;;;;;;;5.82;3.25;;;4.10;99.90;;;;;;5042008;28;20581;-67
2021/01/28 02:35:32;;;;;;;8.15;5.75;;;4.10;99.90;;;;;;5049616;28;20589;-65
2021/01/28 02:38:00;;;;;;;1.80;0.30;;;4.00;99.90;;;;;;5042479;28;20186;-66
2021/01/28 02:40:28;;;;;;;2.60;2.15;;;4.00;99.90;;;;;;5044721;28;20223;-65
2021/01/28 02:42:53;;;;;;;10.85;5.88;;;4.10;99.90;;;;;;5045040;28;20205;-65
2021/01/28 02:45:23;;;;;;;1.77;0.20;;;4.00;99.90;;;;;;5040068;28;20517;-66
2021/01/28 02:47:53;;;;;;;1.75;0.20;;;4.10;99.90;;;;;;5041158;28;20244;-66
2021/01/28 02:50:19;;;;;;;1.80;0.20;;;4.10;99.90;;;;;;5045102;28;20286;-66
2021/01/28 02:52:44;;;;;;;2.80;1.13;;;4.10;99.90;;;;;;5042564;28;20193;-67
2021/01/28 02:55:10;;;;;;;1.73;0.20;;;4.10;99.90;;;;;;5047632;28;20310;-66
2021/01/28 02:57:36;;;;;;;1.87;0.30;;;4.10;99.90;;;;;;5047620;28;20185;-66
2021/01/28 03:00:05;;;;;;;1.80;0.20;;;4.20;99.90;;;;;;5052506;28;20737;-67
2021/01/28 03:02:30;;;;;;;2.85;1.42;;;4.10;99.90;;;;;;5047295;28;20220;-66
2021/01/28 03:04:56;;;;;;;5.53;1.60;;;4.10;99.90;;;;;;5051796;28;20173;-66
2021/01/28 03:07:21;;;;;;;1.80;0.30;;;4.10;99.90;;;;;;5044892;28;20223;-66
2021/01/28 03:09:47;;;;;;;2.77;1.13;;;4.10;99.90;;;;;;5039502;28;20640;-65
2021/01/28 03:12:12;;;;;;;8.50;7.83;;;4.10;99.90;;;;;;5041419;28;20201;-66
2021/01/28 03:14:38;;;;;;;2.10;0.50;;;4.10;99.90;;;;;;5042594;28;20272;-66
2021/01/28 03:17:06;;;;;;;1.80;0.20;;;4.10;99.90;;;;;;5045870;28;20242;-67
2021/01/28 03:19:32;;;;;;;4.78;3.05;;;4.10;99.90;;;;;;5041791;28;20663;-66
2021/01/28 03:21:57;;;;;;;2.93;0.90;;;4.10;99.90;;;;;;5046186;28;20301;-67
2021/01/28 03:24:24;;;;;;;3.93;2.60;;;4.10;99.90;;;;;;5039870;28;20185;-66
2021/01/28 03:26:50;;;;;;;2.45;1.48;;;4.10;99.90;;;;;;5043337;28;20181;-66
2021/01/28 03:29:16;;;;;;;9.77;6.05;;;4.10;99.90;;;;;;5045176;28;20195;-66
2021/01/28 03:31:42;;;;;;;1.70;0.20;;;4.10;99.90;;;;;;5048352;28;20250;-68
2021/01/28 03:34:08;;;;;;;1.80;0.20;;;4.10;99.90;;;;;;5046673;28;20197;-65
2021/01/28 03:36:34;;;;;;;3.57;2.30;;;4.10;99.90;;;;;;5044969;28;20182;-66
2021/01/28 03:38:59;;;;;;;1.80;0.20;;;4.20;99.90;;;;;;5047695;28;20440;-66
2021/01/28 03:41:25;;;;;;;3.60;1.83;;;4.20;99.90;;;;;;5044511;28;20567;-66
2021/01/28 03:43:50;;;;;;;3.80;0.40;;;4.20;99.90;;;;;;5042477;28;20231;-66
2021/01/28 03:46:16;;;;;;;5.03;3.10;;;4.20;99.90;;;;;;5043710;28;20220;-65
2021/01/28 03:48:42;;;;;;;1.80;0.40;;;4.20;99.90;;;;;;5047981;28;20181;-66
2021/01/28 03:51:07;;;;;;;1.80;0.20;;;4.20;99.90;;;;;;5050642;28;20676;-66
2021/01/28 03:53:33;;;;;;;1.80;0.20;;;4.20;99.90;;;;;;5049364;28;20603;-66
2021/01/28 03:55:58;;;;;;;1.87;0.43;;;4.30;99.90;;;;;;5044065;28;20547;-66
2021/01/28 03:58:24;;;;;;;1.80;0.20;;;4.30;99.90;;;;;;5049095;28;20189;-65
2021/01/28 04:00:49;;;;;;;6.27;3.53;;;4.30;99.90;;;;;;5036330;28;20651;-66
2021/01/28 04:03:15;;;;;;;3.97;2.40;;;4.30;99.90;;;;;;5041619;28;20714;-68
2021/01/28 04:05:41;;;;;;;7.33;3.07;;;4.20;99.90;;;;;;5047673;28;20197;-66
2021/01/28 04:08:07;;;;;;;1.80;0.20;;;4.20;99.90;;;;;;5045585;28;20185;-65
2021/01/28 04:10:35;;;;;;;1.90;0.40;;;4.20;99.90;;;;;;5044455;28;20229;-66
2021/01/28 04:13:02;;;;;;;1.80;0.20;;;4.30;99.90;;;;;;5039374;28;20487;-66
2021/01/28 04:15:28;;;;;;;1.80;0.20;;;4.30;99.90;;;;;;5049226;28;20189;-68
2021/01/28 04:17:54;;;;;;;3.80;1.57;;;4.30;99.90;;;;;;5051254;28;20588;-65
2021/01/28 04:20:22;;;;;;;2.43;1.30;;;4.40;99.90;;;;;;5050008;28;20452;-66
2021/01/28 04:22:48;;;;;;;2.38;1.10;;;4.30;99.90;;;;;;5046193;28;20231;-66
2021/01/28 04:25:15;;;;;;;1.80;0.20;;;4.30;99.90;;;;;;5043060;28;20190;-65
2021/01/28 04:27:40;;;;;;;1.75;0.20;;;4.30;99.90;;;;;;5041005;28;20185;-66
2021/01/28 04:30:09;;;;;;;8.50;2.30;;;4.40;99.90;;;;;;5047292;28;20177;-66
2021/01/28 04:32:35;;;;;;;7.63;4.13;;;4.30;99.90;;;;;;5044912;28;20224;-66
2021/01/28 04:35:00;;;;;;;1.70;0.20;;;4.30;99.90;;;;;;5046032;28;20170;-66
2021/01/28 04:37:26;;;;;;;2.87;1.60;;;4.40;99.90;;;;;;5047950;28;20187;-65
2021/01/28 04:39:53;;;;;;;1.80;0.20;;;4.40;99.90;;;;;;5048948;28;20204;-65
2021/01/28 04:42:31;;;;;;;1.80;0.20;;;4.40;99.90;;;;;;5037736;28;20285;-66
2021/01/28 04:44:56;;;;;;;1.80;0.20;;;4.40;99.90;;;;;;5048360;28;20209;-67
2021/01/28 04:47:23;;;;;;;2.20;0.73;;;4.40;99.90;;;;;;5043853;28;20212;-66
2021/01/28 04:49:55;;;;;;;1.80;0.20;;;4.50;99.90;;;;;;5051386;28;20356;-65
2021/01/28 04:52:22;;;;;;;4.72;2.50;;;4.40;99.90;;;;;;5049544;28;20513;-66
2021/01/28 04:54:49;;;;;;;1.80;0.30;;;4.40;99.90;;;;;;5052072;28;20165;-65
2021/01/28 04:57:15;;;;;;;1.70;0.20;;;4.40;99.90;;;;;;5045871;28;20227;-65
2021/01/28 04:59:43;;;;;;;4.13;2.03;;;4.40;99.90;;;;;;5042190;28;20601;-65
2021/01/28 05:02:17;;;;;;;9.38;4.32;;;4.30;99.90;;;;;;5039832;28;20677;-65
2021/01/28 05:04:52;;;;;;;4.95;1.45;;;4.30;99.90;;;;;;5045321;28;20652;-65
2021/01/28 05:07:29;;;;;;;2.33;0.50;;;4.30;99.90;;;;;;5046709;28;20192;-66
2021/01/28 05:10:13;;;;;;;1.73;0.20;;;4.30;99.90;;;;;;5044416;28;20271;-66
2021/01/28 05:12:39;;;;;;;2.15;0.57;;;4.30;99.90;;;;;;5042684;28;20560;-65
2021/01/28 05:15:18;;;;;;;1.73;0.20;;;4.30;99.90;;;;;;5044157;28;20170;-66
2021/01/28 05:17:58;;;;;;;3.80;1.27;;;4.30;99.90;;;;;;5039814;28;20184;-66
2021/01/28 05:20:25;;;;;;;3.47;1.42;;;4.30;99.90;;;;;;5044176;28;20742;-69
2021/01/28 05:23:26;;;;;;;2.88;1.30;;;4.30;99.90;;;;;;5047798;28;20197;-66
2021/01/28 05:25:52;;;;;;;2.42;1.20;;;4.30;99.90;;;;;;5034193;28;20220;-66
2021/01/28 05:28:25;;;;;;;4.30;1.20;;;4.30;99.90;;;;;;5048136;28;20190;-65
2021/01/28 05:30:51;;;;;;;1.75;0.20;;;4.40;99.90;;;;;;5049781;28;20220;-65
2021/01/28 05:33:34;;;;;;;2.90;1.00;;;4.30;99.90;;;;;;5047142;28;20680;-67
2021/01/28 05:36:20;;;;;;;1.70;0.20;;;4.40;99.90;;;;;;5041498;28;20231;-67
2021/01/28 05:38:51;;;;;;;1.73;0.20;;;4.40;99.90;;;;;;5043652;28;20186;-67
2021/01/28 05:41:36;;;;;;;1.70;0.20;;;4.40;99.90;;;;;;5047621;28;20298;-65
2021/01/28 05:44:23;;;;;;;5.20;2.47;;;4.40;99.90;;;;;;5047882;28;20201;-65
2021/01/28 05:47:06;;;;;;;1.70;0.20;;;4.40;99.90;;;;;;5036390;28;20247;-66
2021/01/28 05:49:40;;;;;;;1.73;0.20;;;4.40;99.90;;;;;;5043775;28;20201;-66
2021/01/28 05:52:24;;;;;;;1.70;0.20;;;4.40;99.90;;;;;;5043230;28;20224;-65
2021/01/28 05:55:25;;;;;;;2.50;0.73;;;4.40;99.90;;;;;;5042751;28;20622;-65
2021/01/28 05:58:27;;;;;;;3.08;0.95;;;4.40;99.90;;;;;;4971137;28;20607;-65
2021/01/28 06:00:58;;;;;;;1.73;0.20;;;4.40;99.90;;;;;;5046088;28;20223;-66
2021/01/28 06:03:57;;;;;;;3.88;2.00;;;4.40;99.90;;;;;;5045879;28;20224;-67
2021/01/28 06:06:31;;;;;;;1.70;0.20;;;4.40;99.90;;;;;;5045993;28;20226;-65
2021/01/28 06:09:28;;;;;;;1.80;0.38;;;4.40;99.90;;;;;;5043195;28;20180;-65
2021/01/28 06:12:13;;;;;;;2.35;0.60;;;4.50;99.90;;;;;;5049124;28;20240;-65
2021/01/28 06:15:03;;;;;;;1.70;0.20;;;4.50;99.90;;;;;;5042627;28;20536;-66
2021/01/28 06:17:49;;;;;;;4.05;2.38;;;4.50;99.90;;;;;;5046136;28;20184;-66
2021/01/28 06:20:32;;;;;;;1.80;0.43;;;4.50;99.90;;;;;;5049324;28;20265;-65
2021/01/28 06:23:28;;;;;;;1.90;0.40;;;4.60;99.90;;;;;;5046358;28;20335;-65
2021/01/28 06:26:12;;;;;;;2.65;1.20;;;4.60;99.90;;;;;;5047989;28;20173;-65
2021/01/28 06:29:20;;;;;;;1.70;0.20;;;4.60;99.90;;;;;;5043581;28;20216;-66
2021/01/28 06:32:15;;;;;;;2.22;0.85;;;4.60;99.90;;;;;;5040058;28;20209;-65
2021/01/28 06:35:18;;;;;;;6.90;3.83;;;4.60;99.90;;;;;;5044487;28;20181;-65
2021/01/28 06:38:11;;;;;;;2.22;0.43;;;4.60;99.90;;;;;;5044616;28;20188;-65
2021/01/28 06:40:43;;;;;;;2.47;1.95;;;4.60;99.90;;;;;;5049673;28;20217;-68
2021/01/28 06:43:15;;;;;;;1.70;0.20;;;4.70;99.90;;;;;;5039177;28;20209;-66
2021/01/28 06:46:01;;;;;;;2.00;0.30;;;4.70;99.90;;;;;;5045874;28;20596;-65
2021/01/28 06:48:40;;;;;;;4.53;2.38;;;4.70;99.90;;;;;;5044286;28;20541;-65
2021/01/28 06:51:37;;;;;;;1.70;0.20;;;4.70;99.90;;;;;;5040821;28;20671;-67
2021/01/28 06:54:12;;;;;;;3.20;1.40;;;4.70;99.90;;;;;;5044391;28;20170;-65
2021/01/28 06:57:06;;;;;;;3.92;2.00;;;4.70;99.90;;;;;;5042746;28;20177;-65
2021/01/28 06:59:52;;;;;;;1.70;0.20;;;4.70;99.90;;;;;;5049392;28;20197;-65
2021/01/28 07:02:25;;;;;;;3.08;0.90;;;4.70;99.90;;;;;;5046711;28;21348;-65
2021/01/28 07:05:46;;;;;;;1.70;0.20;;;4.80;99.90;;;;;;5047119;28;20291;-65
2021/01/28 07:08:30;;;;;;;2.75;1.13;;;4.80;99.90;;;;;;5040031;28;20310;-67
2021/01/28 07:10:55;;;;;;;2.90;1.25;;;4.80;99.90;;;;;;5047038;28;20209;-65
2021/01/28 07:13:25;;;;;;;2.67;1.47;;;4.80;99.90;;;;;;5051068;28;20201;-66
2021/01/28 07:15:56;;;;;;;2.25;0.30;;;4.80;99.90;;;;;;5063264;28;20184;-66
2021/01/28 07:19:01;;;;;;;3.67;1.80;;;4.80;99.90;;;;;;5063935;28;20181;-66
2021/01/28 07:21:32;;;;;;;2.10;0.68;;;4.80;99.90;;;;;;5038400;28;20193;-67
2021/01/28 07:24:07;;;;;;;3.75;2.03;;;4.80;99.90;;;;;;5068685;28;20193;-66
2021/01/28 07:26:46;;;;;;;4.63;2.70;;;4.90;99.90;;;;;;5053323;28;20177;-67
2021/01/28 07:29:43;;;;;;;1.70;0.20;;;4.80;99.90;;;;;;5062344;28;20649;-67
2021/01/28 07:32:19;;;;;;;2.67;1.20;;;4.90;99.90;;;;;;5049569;28;20217;-67
2021/01/28 07:35:23;;;;;;;2.63;0.60;;;4.90;99.90;;;;;;5042580;28;20615;-68
2021/01/28 07:37:49;;;;;;;2.65;1.10;;;4.90;99.90;;;;;;5046853;28;20173;-65
2021/01/28 07:40:51;;;;;;;3.30;1.47;;;4.80;99.90;;;;;;5045729;28;20199;-65
2021/01/28 07:43:27;;;;;;;1.70;0.20;;;4.90;99.90;;;;;;5052067;28;20224;-68
2021/01/28 07:46:27;;;;;;;1.70;0.20;;;4.90;99.90;;;;;;5049343;28;20192;-66
2021/01/28 07:49:25;;;;;;;4.00;2.63;;;4.90;99.90;;;;;;5046039;28;20234;-66
2021/01/28 07:51:51;;;;;;;1.73;0.20;;;4.90;99.90;;;;;;5048340;28;20703;-65
2021/01/28 07:54:34;;;;;;;1.70;0.20;;;4.90;99.90;;;;;;5040630;28;20263;-65
2021/01/28 07:57:19;;;;;;;1.98;0.52;;;4.90;99.90;;;;;;5052007;28;20476;-65
2021/01/28 07:59:52;;;;;;;1.90;0.50;;;5.00;99.90;;;;;;5052767;28;20581;-65
2021/01/28 08:02:33;;;;;;;1.80;0.20;;;5.00;99.90;;;;;;5048609;28;20209;-65
2021/01/28 08:05:03;;;;;;;5.45;2.05;;;5.00;99.90;;;;;;5049374;28;20259;-65
2021/01/28 08:07:31;;;;;;;1.70;0.20;;;5.00;99.90;;;;;;5048436;28;20668;-66
2021/01/28 08:09:59;;;;;;;1.77;0.35;;;4.90;99.90;;;;;;5041900;28;20296;-68
2021/01/28 08:12:48;;;;;;;1.80;0.40;;;4.90;99.90;;;;;;5045129;28;20213;-65
2021/01/28 08:15:58;;;;;;;1.70;0.20;;;4.90;99.90;;;;;;5047541;28;20185;-65
2021/01/28 08:18:39;;;;;;;1.70;0.20;;;5.00;99.90;;;;;;4989646;28;20194;-69
2021/01/28 08:21:18;;;;;;;1.75;0.30;;;5.00;99.90;;;;;;4992587;28;20175;-69
2021/01/28 08:23:44;;;;;;;1.70;0.20;;;5.00;99.90;;;;;;5038080;28;20240;-66
2021/01/28 08:26:13;;;;;;;2.40;1.13;;;5.10;99.90;;;;;;5056639;28;20186;-66
2021/01/28 08:28:42;;;;;;;1.73;0.20;;;5.00;99.90;;;;;;5052954;28;20442;-66
2021/01/28 08:31:19;;;;;;;1.90;0.40;;;5.00;99.90;;;;;;5050061;28;20215;-65
2021/01/28 08:33:48;;;;;;;1.70;0.20;;;5.10;99.90;;;;;;5060979;28;20583;-66
2021/01/28 08:36:31;;;;;;;1.90;0.50;;;5.10;99.90;;;;;;5041162;28;20497;-65
2021/01/28 08:39:14;;;;;;;2.28;1.10;;;5.10;99.90;;;;;;5049926;28;20184;-65
2021/01/28 08:41:41;;;;;;;2.60;1.00;;;5.20;99.90;;;;;;5050547;28;20182;-65
2021/01/28 08:44:11;;;;;;;5.50;1.40;;;5.20;99.90;;;;;;5045731;28;20185;-66
2021/01/28 08:46:38;;;;;;;1.70;0.20;;;5.20;99.90;;;;;;5064506;28;20178;-66
2021/01/28 08:49:13;;;;;;;1.73;0.20;;;5.30;99.90;;;;;;5084636;22;20274;-60
2021/01/28 08:51:41;;;;;;;1.75;0.20;;;5.30;99.90;;;;;;5052208;28;20687;-60
2021/01/28 08:54:19;;;;;;;1.80;0.30;;;5.30;99.90;;;;;;5055266;28;20181;-60
2021/01/28 08:56:46;;;;;;;1.80;0.30;;;5.40;99.90;;;;;;5051569;28;20215;-60
2021/01/28 08:59:15;;;;;;;1.70;0.20;;;5.40;99.90;;;;;;5055586;28;20208;-64
2021/01/28 09:01:44;;;;;;;1.80;0.32;;;5.40;99.90;;;;;;5051164;28;20678;-60
2021/01/28 09:04:25;;;;;;;1.70;0.20;;;5.40;99.90;;;;;;5047713;28;20255;-60
2021/01/28 09:06:51;;;;;;;1.75;0.20;;;5.40;99.90;;;;;;5052519;28;20185;-60
2021/01/28 09:09:29;;;;;;;1.70;0.20;;;5.40;99.90;;;;;;5052495;28;20220;-60
2021/01/28 09:12:28;;;;;;;1.70;0.20;;;5.50;99.90;;;;;;5045691;28;20233;-60
2021/01/28 09:15:22;;;;;;;2.65;0.90;;;5.50;99.90;;;;;;5048089;28;20181;-60
2021/01/28 09:17:48;;;;;;;1.90;0.40;;;5.50;99.90;;;;;;5044030;28;20240;-60
2021/01/28 09:20:22;;;;;;;1.70;0.20;;;5.50;99.90;;;;;;5048755;28;20193;-60
2021/01/28 09:22:47;;;;;;;1.80;0.30;;;5.50;99.90;;;;;;5052779;28;20232;-60
2021/01/28 09:25:22;;;;;;;2.20;1.03;;;5.60;99.90;;;;;;5044492;28;20205;-60
2021/01/28 09:28:05;;;;;;;2.00;0.77;;;5.60;99.90;;;;;;5052896;28;20193;-60
2021/01/28 09:30:34;;;;;;;5.45;1.27;;;5.60;99.90;;;;;;5048397;28;20307;-60
2021/01/28 09:33:23;;;;;;;1.70;0.20;;;5.60;99.90;;;;;;5054849;28;20536;-60
2021/01/28 09:36:06;;;;;;;1.98;0.40;;;5.60;99.90;;;;;;5042121;28;20182;-61
2021/01/28 09:38:32;;;;;;;2.20;0.82;;;5.60;99.90;;;;;;5048680;28;20204;-60
2021/01/28 09:41:19;;;;;;;2.03;0.50;;;5.60;99.90;;;;;;5048099;28;20272;-61
2021/01/28 09:43:46;;;;;;;1.70;0.20;;;5.60;99.90;;;;;;5043955;28;20269;-61
2021/01/28 09:46:17;;;;;;;2.20;0.50;;;5.60;99.90;;;;;;5050962;28;20544;-61
2021/01/28 09:48:44;;;;;;;1.80;0.28;;;5.60;99.90;;;;;;5044110;28;20298;-60
2021/01/28 09:51:12;;;;;;;2.10;0.95;;;5.60;99.90;;;;;;5046316;28;20201;-60
2021/01/28 09:53:38;;;;;;;1.70;0.20;;;5.60;99.90;;;;;;5047298;28;20339;-61
2021/01/28 09:56:04;;;;;;;2.03;0.40;;;5.60;99.90;;;;;;5047225;28;20659;-60
2021/01/28 09:58:29;;;;;;;1.97;0.47;;;5.60;99.90;;;;;;5050914;28;20257;-60
2021/01/28 10:00:55;;;;;;;1.70;0.20;;;5.70;99.90;;;;;;5051365;28;20946;-60
2021/01/28 10:03:21;;;;;;;1.70;0.20;;;5.70;99.90;;;;;;5041428;28;20194;-60
2021/01/28 10:05:47;;;;;;;1.77;0.30;;;5.70;99.90;;;;;;5046006;28;20308;-64
2021/01/28 10:08:17;;;;;;;1.90;0.43;;;5.70;99.90;;;;;;5046682;28;20280;-61
2021/01/28 10:10:43;;;;;;;1.90;0.35;;;5.70;99.90;;;;;;5044878;28;20489;-60
2021/01/28 10:13:13;;;;;;;1.90;0.60;;;5.70;99.90;;;;;;5048386;28;20205;-59
2021/01/28 10:15:39;;;;;;;2.95;0.98;;;5.70;99.90;;;;;;5045185;28;20180;-60
2021/01/28 10:18:05;;;;;;;2.47;0.53;;;5.70;99.90;;;;;;5054057;28;20275;-60
2021/01/28 10:20:30;;;;;;;1.73;0.20;;;5.80;99.90;;;;;;5045504;28;20213;-60
2021/01/28 10:23:03;;;;;;;2.60;1.10;;;5.70;99.90;;;;;;5043935;28;20264;-60
2021/01/28 10:25:29;;;;;;;2.33;1.05;;;5.70;99.90;;;;;;5042166;28;20193;-60
2021/01/28 10:27:54;;;;;;;2.00;0.32;;;5.70;99.90;;;;;;5049335;28;20178;-67
2021/01/28 10:30:22;;;;;;;4.37;1.00;;;5.80;99.90;;;;;;5045790;28;20208;-60
2021/01/28 10:32:49;;;;;;;1.70;0.20;;;5.80;99.90;;;;;;5048073;28;20264;-60
2021/01/28 10:35:26;;;;;;;2.33;0.50;;;5.70;99.90;;;;;;5051841;28;20182;-60
2021/01/28 10:37:52;;;;;;;1.73;0.20;;;5.80;99.90;;;;;;5042432;28;20309;-60
2021/01/28 10:40:18;;;;;;;1.70;0.20;;;5.80;99.90;;;;;;5045002;28;20730;-60
2021/01/28 10:42:45;;;;;;;1.92;0.52;;;5.80;99.90;;;;;;5044813;28;20189;-60
2021/01/28 10:45:18;;;;;;;1.80;0.30;;;5.90;99.90;;;;;;5044047;28;20185;-60
2021/01/28 10:47:43;;;;;;;1.73;0.20;;;5.80;99.90;;;;;;5048584;28;20267;-60
2021/01/28 10:50:10;;;;;;;3.40;1.50;;;5.90;99.90;;;;;;5047818;28;20243;-60
2021/01/28 10:52:36;;;;;;;3.15;1.40;;;5.90;99.90;;;;;;5044552;28;20216;-60
2021/01/28 10:55:02;;;;;;;1.73;0.27;;;5.90;99.90;;;;;;5041831;28;20185;-60
2021/01/28 10:57:27;;;;;;;2.00;0.57;;;6.00;99.90;;;;;;5047478;28;20443;-60
2021/01/28 10:59:54;;;;;;;3.90;1.90;;;6.00;99.90;;;;;;5044586;28;20460;-59
2021/01/28 11:02:19;;;;;;;4.80;2.50;;;6.00;99.90;;;;;;5049293;28;20193;-61
2021/01/28 11:04:45;;;;;;;1.70;0.20;;;6.00;99.90;;;;;;5046519;28;20189;-60
2021/01/28 11:07:11;;;;;;;2.50;1.10;;;6.00;99.90;;;;;;5051408;28;20185;-60
2021/01/28 11:09:36;;;;;;;2.20;0.97;;;6.10;99.90;;;;;;5044492;28;20258;-60
2021/01/28 11:12:02;;;;;;;1.70;0.20;;;6.10;99.90;;;;;;5046065;28;20477;-60
2021/01/28 11:14:27;;;;;;;2.53;0.77;;;6.10;99.90;;;;;;5049488;28;20185;-60
2021/01/28 11:16:54;;;;;;;1.73;0.20;;;6.10;99.90;;;;;;5046836;28;20264;-60
2021/01/28 11:19:20;;;;;;;1.80;0.40;;;6.20;99.90;;;;;;5044402;28;20667;-60
2021/01/28 11:21:46;;;;;;;2.97;0.97;;;6.20;99.90;;;;;;5042957;28;20436;-59
2021/01/28 11:24:12;;;;;;;2.80;1.77;;;6.20;99.90;;;;;;5050033;28;20783;-60
2021/01/28 11:26:38;;;;;;;2.00;0.70;;;6.20;99.90;;;;;;5051433;28;20184;-59
2021/01/28 11:29:04;;;;;;;1.90;0.70;;;6.30;99.90;;;;;;5043826;28;20456;-59
2021/01/28 11:31:31;;;;;;;2.10;0.70;;;6.30;99.90;;;;;;5052598;28;20212;-60
2021/01/28 11:33:56;;;;;;;1.70;0.20;;;6.20;99.90;;;;;;5046735;28;20182;-60
2021/01/28 11:36:22;;;;;;;1.80;0.37;;;6.30;99.90;;;;;;5043044;28;20444;-60
2021/01/28 11:38:48;;;;;;;3.97;2.70;;;6.30;99.90;;;;;;5047385;28;20237;-61
2021/01/28 11:41:13;;;;;;;4.80;2.07;;;6.30;99.90;;;;;;5041167;28;20192;-60
2021/01/28 11:43:38;;;;;;;2.57;0.53;;;6.30;99.90;;;;;;5045635;28;20197;-60
2021/01/28 11:46:04;;;;;;;1.70;0.20;;;6.30;99.90;;;;;;5045995;28;20690;-60
2021/01/28 11:48:29;;;;;;;1.80;0.37;;;6.40;99.90;;;;;;5044748;28;20185;-60
2021/01/28 11:50:55;;;;;;;1.90;0.30;;;6.40;99.90;;;;;;5048159;28;20255;-60
2021/01/28 11:53:33;;;;;;;2.20;0.73;;;6.40;99.90;;;;;;5048872;28;20256;-60
2021/01/28 11:55:58;;;;;;;5.60;2.40;;;6.40;99.90;;;;;;5037706;28;20181;-61
2021/01/28 11:58:24;;;;;;;3.30;2.33;;;6.50;99.90;;;;;;5047937;28;20181;-60
2021/01/28 12:00:51;;;;;;;2.10;0.40;;;6.50;99.90;;;;;;5049195;28;20197;-60
2021/01/28 12:03:16;;;;;;;3.07;1.03;;;6.50;99.90;;;;;;5049277;28;20192;-60
2021/01/28 12:05:42;;;;;;;2.00;0.77;;;6.50;99.90;;;;;;5048708;28;20791;-60
2021/01/28 12:08:07;;;;;;;3.40;0.97;;;6.60;99.90;;;;;;5045492;28;20542;-60
2021/01/28 12:10:33;;;;;;;2.37;0.67;;;6.60;99.90;;;;;;5057113;28;20205;-60
2021/01/28 12:12:59;;;;;;;4.33;1.70;;;6.60;99.90;;;;;;5046769;28;20192;-60
2021/01/28 12:15:26;;;;;;;3.03;1.50;;;6.70;99.90;;;;;;5052022;28;20185;-59
2021/01/28 12:17:53;;;;;;;6.00;3.57;;;6.70;99.90;;;;;;5047903;28;20493;-60
2021/01/28 12:20:24;;;;;;;2.10;0.40;;;6.70;99.90;;;;;;5045341;28;20509;-60
2021/01/28 12:22:50;;;;;;;2.37;0.80;;;6.70;99.90;;;;;;5051024;28;20435;-60
2021/01/28 12:25:16;;;;;;;4.87;1.27;;;6.70;99.90;;;;;;5043852;28;20811;-59
2021/01/28 12:27:41;;;;;;;3.00;1.43;;;6.80;99.90;;;;;;5047890;28;20518;-60
2021/01/28 12:30:09;;;;;;;1.73;0.20;;;6.80;99.90;;;;;;5045065;28;20232;-60
2021/01/28 12:32:37;;;;;;;1.70;0.20;;;6.80;99.90;;;;;;5048713;28;20213;-59
2021/01/28 12:35:04;;;;;;;1.70;0.20;;;6.80;99.90;;;;;;5048242;28;20972;-60
2021/01/28 12:37:29;;;;;;;1.70;0.20;;;6.80;99.90;;;;;;5046951;28;20502;-59
2021/01/28 12:39:55;;;;;;;4.00;1.93;;;6.90;99.90;;;;;;5047184;28;20518;-60
2021/01/28 12:42:22;;;;;;;2.07;0.77;;;6.90;99.90;;;;;;5047409;28;20189;-59
2021/01/28 12:44:47;;;;;;;1.80;0.50;;;6.90;99.90;;;;;;5046480;28;20224;-59
2021/01/28 12:47:13;;;;;;;2.10;0.80;;;6.90;99.90;;;;;;5052785;28;20455;-60
2021/01/28 12:49:38;;;;;;;1.77;0.30;;;7.00;99.90;;;;;;5044718;28;20209;-60
2021/01/28 12:52:04;;;;;;;5.53;3.23;;;7.00;99.90;;;;;;5051501;28;20201;-59
2021/01/28 12:54:29;;;;;;;3.73;1.90;;;7.00;99.90;;;;;;5047819;28;20193;-60
2021/01/28 12:56:55;;;;;;;2.00;0.50;;;7.10;99.90;;;;;;5046923;28;20247;-59
2021/01/28 12:59:20;;;;;;;1.80;0.40;;;7.10;99.90;;;;;;5047198;28;20267;-59
2021/01/28 13:01:46;;;;;;;3.07;2.00;;;7.20;99.90;;;;;;5050455;28;20177;-59
2021/01/28 13:04:11;;;;;;;2.17;0.70;;;7.20;99.90;;;;;;5047700;28;20189;-59
2021/01/28 13:06:37;;;;;;;1.70;0.20;;;7.20;99.90;;;;;;5045313;28;20186;-60
2021/01/28 13:09:03;;;;;;;2.37;0.97;;;7.30;99.90;;;;;;5048095;28;20201;-60
2021/01/28 13:11:29;;;;;;;2.43;1.17;;;7.30;99.90;;;;;;5049311;28;20208;-60
2021/01/28 13:13:54;;;;;;;1.80;0.20;;;7.40;99.90;;;;;;5050790;28;20440;-60
2021/01/28 13:16:20;;;;;;;2.77;1.17;;;7.40;99.90;;;;;;5051878;28;20492;-60
2021/01/28 13:18:45;;;;;;;1.70;0.20;;;7.40;99.90;;;;;;5045932;28;20208;-60
2021/01/28 13:21:11;;;;;;;3.77;1.50;;;7.50;99.90;;;;;;5051433;28;20730;-60